Time;durP1;ratioP1;P1;durP2;ratioP2;P2;SDS_P1;SDS_P2;PMS_P1;PMS_P2;Temp;Humidity;BMP_temperature;BMP_pressure;BME280_temperature;BME280_humidity;BME280_pressure;Samples;Min_cycle;Max_cycle;Signal;HPM_P1;HPM_P2
2023/12/28 00:01:43;;;;;;;3.40;3.40;;;;;;;8.42;88.56;100759.59;5035309;28;20188;-74
2023/12/28 00:04:09;;;;;;;3.90;3.63;;;;;;;8.34;89.18;100747.94;5036316;28;20695;-74
2023/12/28 00:06:36;;;;;;;3.20;3.10;;;;;;;8.33;89.54;100747.09;5035822;28;20192;-74
2023/12/28 00:09:03;;;;;;;3.63;3.40;;;;;;;8.32;89.55;100744.56;5035977;28;20615;-74
2023/12/28 00:11:37;;;;;;;4.20;3.40;;;;;;;8.26;90.18;100749.44;5036016;28;20207;-74
2023/12/28 00:14:04;;;;;;;3.73;3.73;;;;;;;8.22;90.68;100741.84;5035661;28;20257;-74
2023/12/28 00:16:32;;;;;;;5.60;2.60;;;;;;;8.23;91.08;100744.34;5036185;28;20314;-74
2023/12/28 00:18:59;;;;;;;3.70;3.50;;;;;;;8.23;91.28;100749.69;5035402;28;20200;-74
2023/12/28 00:21:26;;;;;;;3.93;3.83;;;;;;;8.28;91.25;100755.44;5035535;28;20199;-74
2023/12/28 00:23:53;;;;;;;3.73;3.47;;;;;;;8.34;91.44;100759.44;5035676;28;20219;-74
2023/12/28 00:26:21;;;;;;;3.37;3.20;;;;;;;8.41;91.18;100759.72;5035741;28;20200;-74
2023/12/28 00:28:57;;;;;;;8.33;3.50;;;;;;;8.46;90.77;100754.81;5034361;28;20192;-74
2023/12/28 00:31:23;;;;;;;3.23;3.13;;;;;;;8.47;90.73;100748.53;5034115;28;20192;-74
2023/12/28 00:33:50;;;;;;;4.37;4.20;;;;;;;8.53;90.63;100740.00;5035317;28;20664;-74
2023/12/28 00:36:17;;;;;;;4.60;3.77;;;;;;;8.55;90.72;100751.34;5034072;28;20269;-74
2023/12/28 00:38:43;;;;;;;3.30;3.20;;;;;;;8.51;90.75;100748.09;5033962;28;20196;-74
2023/12/28 00:41:09;;;;;;;2.87;2.87;;;;;;;8.51;90.52;100736.59;5035116;28;20208;-74
2023/12/28 00:43:36;;;;;;;3.63;3.47;;;;;;;8.62;90.23;100745.31;5035043;28;20692;-74
2023/12/28 00:46:02;;;;;;;4.63;3.27;;;;;;;8.64;90.12;100753.19;5033844;28;20200;-74
2023/12/28 00:48:29;;;;;;;4.47;4.17;;;;;;;8.72;89.52;100761.31;5033994;28;20571;-74
2023/12/28 00:50:58;;;;;;;4.50;3.20;;;;;;;8.75;89.46;100754.84;5034959;28;20199;-74
2023/12/28 00:53:26;;;;;;;3.43;3.37;;;;;;;8.73;89.43;100752.34;5035195;28;20191;-74
2023/12/28 00:55:52;;;;;;;3.90;3.80;;;;;;;8.83;89.23;100763.00;5034885;28;20202;-74
2023/12/28 00:58:19;;;;;;;3.60;3.57;;;;;;;8.88;88.47;100758.09;5034831;28;20192;-74
2023/12/28 01:00:46;;;;;;;3.40;3.40;;;;;;;8.99;88.25;100773.97;5033453;28;20227;-74
2023/12/28 01:03:12;;;;;;;3.23;3.23;;;;;;;8.97;88.48;100768.75;5034696;28;20203;-74
2023/12/28 01:05:39;;;;;;;4.13;4.03;;;;;;;9.01;88.10;100767.50;5034944;28;20551;-74
2023/12/28 01:08:06;;;;;;;3.70;3.60;;;;;;;9.12;87.87;100775.34;5033390;28;20192;-74
2023/12/28 01:10:32;;;;;;;4.00;3.90;;;;;;;9.21;86.87;100767.50;5033239;28;20216;-74
2023/12/28 01:12:59;;;;;;;3.50;3.40;;;;;;;9.22;86.12;100772.69;5032998;28;20241;-74
2023/12/28 01:15:25;;;;;;;3.90;3.70;;;;;;;9.25;85.96;100776.91;5034782;28;20219;-74
2023/12/28 01:17:51;;;;;;;3.13;3.03;;;;;;;9.31;85.49;100773.66;5034442;28;20279;-71
2023/12/28 01:20:18;;;;;;;3.50;3.47;;;;;;;9.30;85.21;100794.16;5034588;28;20208;-71
2023/12/28 01:22:45;;;;;;;3.97;3.87;;;;;;;9.22;85.51;100783.34;5033046;28;20207;-71
2023/12/28 01:25:11;;;;;;;3.70;3.67;;;;;;;9.26;85.06;100787.41;5033051;28;20230;-71
2023/12/28 01:27:37;;;;;;;4.07;3.90;;;;;;;9.35;84.57;100793.72;5032993;28;20721;-71
2023/12/28 01:30:05;;;;;;;3.83;3.47;;;;;;;9.39;84.17;100782.63;5032934;28;20219;-71
2023/12/28 01:32:32;;;;;;;4.23;4.03;;;;;;;9.45;84.23;100789.22;5032955;28;20207;-71
2023/12/28 01:34:58;;;;;;;6.00;3.67;;;;;;;9.44;84.05;100792.88;5034106;28;20231;-71
2023/12/28 01:37:25;;;;;;;3.30;3.10;;;;;;;9.50;83.88;100795.00;5034128;28;20241;-71
2023/12/28 01:39:51;;;;;;;6.43;3.83;;;;;;;9.45;83.64;100800.75;5033975;28;20211;-71
2023/12/28 01:42:18;;;;;;;4.13;3.77;;;;;;;9.48;83.44;100796.94;5034486;28;20238;-71
2023/12/28 01:44:46;;;;;;;4.30;4.00;;;;;;;9.48;83.94;100786.28;5032684;28;20282;-71
2023/12/28 01:47:12;;;;;;;3.63;3.63;;;;;;;9.56;83.84;100797.06;5034150;28;20554;-71
2023/12/28 01:49:39;;;;;;;3.43;3.43;;;;;;;9.62;83.49;100796.50;5032518;28;20691;-71
2023/12/28 01:52:06;;;;;;;4.30;4.10;;;;;;;9.54;83.87;100804.38;5033885;28;20192;-71
2023/12/28 01:54:35;;;;;;;4.40;4.13;;;;;;;9.60;83.49;100795.78;5032580;28;20198;-71
2023/12/28 01:57:03;;;;;;;3.23;3.20;;;;;;;9.57;83.70;100812.09;5032514;28;20282;-71
2023/12/28 01:59:31;;;;;;;3.37;3.37;;;;;;;9.59;83.75;100804.78;5032380;28;20219;-71
2023/12/28 02:01:58;;;;;;;3.70;3.60;;;;;;;9.63;83.30;100804.34;5032449;28;20191;-71
2023/12/28 02:04:27;;;;;;;4.00;3.90;;;;;;;9.72;83.30;100812.50;5032298;28;20211;-71
2023/12/28 02:06:56;;;;;;;3.67;3.57;;;;;;;9.68;83.28;100801.25;5033597;28;20191;-71
2023/12/28 02:09:23;;;;;;;5.50;3.83;;;;;;;9.67;83.58;100809.44;5033509;28;20207;-71
2023/12/28 02:11:49;;;;;;;3.40;3.40;;;;;;;9.68;83.21;100822.59;5033524;28;20194;-73
2023/12/28 02:14:16;;;;;;;3.60;3.50;;;;;;;9.72;83.26;100816.00;5032223;28;20195;-73
2023/12/28 02:16:49;;;;;;;3.60;3.40;;;;;;;9.79;83.15;100808.28;5033638;28;20246;-73
2023/12/28 02:19:44;;;;;;;3.77;3.73;;;;;;;9.78;82.66;100822.59;5032097;28;20726;-73
2023/12/28 02:22:14;;;;;;;4.00;3.67;;;;;;;9.75;83.24;100822.91;5032118;28;20261;-73
2023/12/28 02:25:08;;;;;;;3.37;3.37;;;;;;;9.76;83.02;100817.38;5032666;28;20215;-73
2023/12/28 02:27:41;;;;;;;3.70;3.70;;;;;;;9.78;82.85;100818.09;5033595;28;20211;-73
2023/12/28 02:30:09;;;;;;;3.73;3.73;;;;;;;9.71;83.34;100826.84;5031979;28;20560;-73
2023/12/28 02:32:41;;;;;;;3.63;3.53;;;;;;;9.78;82.97;100819.94;5031999;28;20241;-73
2023/12/28 02:35:31;;;;;;;4.47;4.23;;;;;;;9.70;83.51;100820.66;5032050;28;20188;-73
2023/12/28 02:38:02;;;;;;;3.30;3.17;;;;;;;9.69;83.00;100821.63;5033791;28;20226;-74
2023/12/28 02:40:35;;;;;;;3.93;3.83;;;;;;;9.73;83.32;100816.84;5033154;28;20215;-74
2023/12/28 02:43:02;;;;;;;3.90;3.70;;;;;;;9.64;83.48;100807.88;5031855;28;20212;-74
2023/12/28 02:45:29;;;;;;;3.83;3.83;;;;;;;9.62;83.59;100816.03;5033131;28;20199;-73
2023/12/28 02:47:55;;;;;;;5.53;3.07;;;;;;;9.72;83.22;100812.50;5033365;28;20246;-73
2023/12/28 02:50:22;;;;;;;3.40;3.40;;;;;;;9.74;83.06;100819.38;5033586;28;20243;-73
2023/12/28 02:52:48;;;;;;;4.23;4.13;;;;;;;9.67;83.20;100812.09;5033295;28;20191;-73
2023/12/28 02:55:15;;;;;;;3.77;3.77;;;;;;;9.68;83.46;100806.59;5033295;28;20184;-73
2023/12/28 02:57:43;;;;;;;6.23;3.17;;;;;;;9.61;83.52;100798.34;5033015;28;20660;-73
2023/12/28 03:00:10;;;;;;;3.43;3.30;;;;;;;9.59;83.76;100792.28;5031631;28;20761;-73
2023/12/28 03:02:37;;;;;;;4.50;4.13;;;;;;;9.49;83.89;100791.47;5031661;28;20195;-73
2023/12/28 03:05:05;;;;;;;4.73;4.13;;;;;;;9.51;83.98;100804.66;5032970;28;20601;-73
2023/12/28 03:07:33;;;;;;;3.77;3.77;;;;;;;9.47;84.27;100809.44;5031665;28;20227;-73
2023/12/28 03:10:00;;;;;;;6.13;3.90;;;;;;;9.48;84.21;100807.63;5032806;28;20710;-73
2023/12/28 03:12:28;;;;;;;5.90;5.60;;;;;;;9.51;84.13;100807.31;5032880;28;20191;-73
2023/12/28 03:14:54;;;;;;;5.27;5.07;;;;;;;9.55;83.97;100809.56;5031564;28;20227;-73
2023/12/28 03:17:21;;;;;;;5.27;3.80;;;;;;;9.55;83.96;100803.38;5031435;28;20206;-73
2023/12/28 03:19:47;;;;;;;4.77;4.60;;;;;;;9.55;83.92;100812.22;5033028;28;20212;-73
2023/12/28 03:22:15;;;;;;;6.93;4.70;;;;;;;9.51;84.36;100805.50;5032796;28;20188;-73
2023/12/28 03:24:41;;;;;;;5.30;3.57;;;;;;;9.62;84.05;100799.19;5032667;28;20683;-73
2023/12/28 03:27:08;;;;;;;4.57;4.27;;;;;;;9.63;84.07;100808.88;5032972;28;20196;-73
2023/12/28 03:29:34;;;;;;;5.03;4.90;;;;;;;9.63;83.85;100798.19;5032906;28;20216;-74
2023/12/28 03:32:01;;;;;;;5.80;4.20;;;;;;;9.62;83.82;100789.34;5032702;28;20561;-74
2023/12/28 03:34:29;;;;;;;4.67;4.40;;;;;;;9.60;84.09;100803.81;5031393;28;20188;-74
2023/12/28 03:36:59;;;;;;;4.60;4.30;;;;;;;9.64;83.81;100789.19;5034870;28;20207;-74
2023/12/28 03:39:26;;;;;;;3.77;3.57;;;;;;;9.69;83.76;100802.09;5036274;28;20215;-74
2023/12/28 03:41:54;;;;;;;3.07;3.07;;;;;;;9.67;84.19;100796.06;5035067;28;20199;-74
2023/12/28 03:44:21;;;;;;;4.40;4.37;;;;;;;9.62;84.16;100801.84;5036146;28;20210;-74
2023/12/28 03:46:48;;;;;;;4.30;3.93;;;;;;;9.59;84.46;100794.09;5036245;28;20188;-74
2023/12/28 03:49:16;;;;;;;5.00;4.20;;;;;;;9.64;84.29;100800.69;5036602;28;20208;-73
2023/12/28 03:51:43;;;;;;;4.93;4.40;;;;;;;9.74;84.04;100784.66;5036168;28;20191;-73
2023/12/28 03:54:10;;;;;;;4.70;4.47;;;;;;;9.80;83.90;100786.75;5035070;28;20557;-73
2023/12/28 03:56:39;;;;;;;4.27;4.17;;;;;;;9.79;83.79;100790.44;5035998;28;20241;-73
2023/12/28 03:59:06;;;;;;;3.67;3.67;;;;;;;9.80;83.35;100793.94;5036257;28;20176;-73
2023/12/28 04:01:33;;;;;;;4.20;3.77;;;;;;;9.73;83.51;100788.31;5035922;28;20202;-73
2023/12/28 04:04:00;;;;;;;6.10;4.60;;;;;;;9.75;83.65;100785.50;5036394;28;20195;-73
2023/12/28 04:06:26;;;;;;;4.53;4.23;;;;;;;9.80;83.65;100778.72;5034589;28;20292;-73
2023/12/28 04:08:53;;;;;;;4.83;4.63;;;;;;;9.77;83.34;100783.53;5036044;28;20176;-73
2023/12/28 04:11:19;;;;;;;3.93;3.87;;;;;;;9.77;83.34;100783.53;5034516;28;20200;-74
2023/12/28 04:13:46;;;;;;;4.30;4.00;;;;;;;9.77;83.46;100788.88;5035932;28;20654;-74
2023/12/28 04:16:13;;;;;;;8.47;3.67;;;;;;;9.73;83.90;100796.31;5034404;28;20196;-74
2023/12/28 04:18:43;;;;;;;3.93;3.80;;;;;;;9.77;83.71;100791.53;5035498;28;20192;-74
2023/12/28 04:21:11;;;;;;;4.23;4.13;;;;;;;9.80;83.24;100770.72;5035556;28;20204;-73
2023/12/28 04:23:41;;;;;;;4.80;4.03;;;;;;;9.83;83.32;100773.13;5035480;28;20213;-73
2023/12/28 04:26:07;;;;;;;3.90;3.67;;;;;;;9.75;83.60;100790.84;5035514;28;20168;-73
2023/12/28 04:28:35;;;;;;;4.70;3.80;;;;;;;9.83;83.20;100778.47;5036027;28;20203;-73
2023/12/28 04:31:06;;;;;;;3.60;3.47;;;;;;;9.78;83.45;100785.22;5035595;28;20208;-73
2023/12/28 04:33:32;;;;;;;3.97;3.93;;;;;;;9.89;83.14;100793.03;5034930;28;20258;-73
2023/12/28 04:36:04;;;;;;;5.43;4.00;;;;;;;9.91;83.16;100788.41;5034898;28;20200;-73
2023/12/28 04:38:31;;;;;;;3.70;3.70;;;;;;;9.90;83.01;100806.25;5035568;28;20188;-74
2023/12/28 04:40:59;;;;;;;3.20;3.20;;;;;;;9.99;82.70;100794.72;5033863;28;20212;-73
2023/12/28 04:43:26;;;;;;;4.00;3.80;;;;;;;9.93;82.92;100792.59;5033862;28;20309;-74
2023/12/28 04:45:53;;;;;;;3.93;3.83;;;;;;;9.97;82.39;100793.19;5033881;28;20196;-73
2023/12/28 04:48:20;;;;;;;4.00;3.63;;;;;;;9.98;82.69;100786.84;5034456;28;20653;-73
2023/12/28 04:50:48;;;;;;;4.23;4.03;;;;;;;10.00;82.86;100783.03;5033684;28;20768;-73
2023/12/28 04:53:15;;;;;;;3.80;3.60;;;;;;;10.05;82.76;100787.94;5033728;28;20192;-73
2023/12/28 04:55:42;;;;;;;4.20;4.07;;;;;;;10.06;82.54;100794.94;5035223;28;20620;-73
2023/12/28 04:58:10;;;;;;;4.13;3.80;;;;;;;10.10;82.10;100801.69;5034906;28;20667;-73
2023/12/28 05:00:36;;;;;;;4.70;4.33;;;;;;;10.11;82.20;100800.69;5033508;28;20216;-73
2023/12/28 05:03:04;;;;;;;4.40;3.73;;;;;;;10.22;81.95;100799.72;5033497;28;20203;-73
2023/12/28 05:05:31;;;;;;;3.27;3.13;;;;;;;10.18;81.41;100809.03;5033400;28;20227;-73
2023/12/28 05:07:57;;;;;;;5.47;3.73;;;;;;;10.18;81.37;100803.69;5033407;28;20726;-73
2023/12/28 05:10:24;;;;;;;4.20;3.53;;;;;;;10.28;81.24;100799.09;5034670;28;20208;-73
2023/12/28 05:12:50;;;;;;;4.57;4.47;;;;;;;10.20;81.28;100801.69;5034902;28;20177;-73
2023/12/28 05:15:19;;;;;;;4.37;4.20;;;;;;;10.18;81.14;100812.53;5033222;28;20652;-74
2023/12/28 05:17:46;;;;;;;4.33;3.70;;;;;;;10.16;81.30;100805.63;5034382;28;20195;-74
2023/12/28 05:20:12;;;;;;;3.97;3.40;;;;;;;10.18;81.29;100804.53;5034354;28;20691;-73
2023/12/28 05:22:39;;;;;;;6.57;3.80;;;;;;;10.31;81.02;100812.19;5034655;28;20656;-73
2023/12/28 05:25:05;;;;;;;4.33;4.13;;;;;;;10.25;81.00;100810.09;5034272;28;20211;-73
2023/12/28 05:27:32;;;;;;;3.77;3.67;;;;;;;10.23;81.07;100804.06;5034838;28;20188;-73
2023/12/28 05:29:58;;;;;;;3.93;3.73;;;;;;;10.24;81.15;100809.25;5034185;28;20246;-72
2023/12/28 05:32:25;;;;;;;3.70;3.67;;;;;;;10.20;81.26;100813.22;5034229;28;20180;-72
2023/12/28 05:34:51;;;;;;;3.90;3.60;;;;;;;10.25;80.71;100816.28;5034718;28;20532;-72
2023/12/28 05:37:17;;;;;;;4.70;3.23;;;;;;;10.27;80.49;100819.63;5034665;28;20192;-73
2023/12/28 05:39:44;;;;;;;3.77;3.53;;;;;;;10.31;79.96;100822.88;5034053;28;20239;-73
2023/12/28 05:42:10;;;;;;;3.77;3.67;;;;;;;10.30;80.33;100821.19;5034296;28;20270;-73
2023/12/28 05:44:37;;;;;;;4.87;4.47;;;;;;;10.31;80.21;100817.53;5034186;28;20621;-73
2023/12/28 05:47:03;;;;;;;3.33;3.13;;;;;;;10.28;80.38;100823.16;5033968;28;20187;-73
2023/12/28 05:49:30;;;;;;;3.07;2.87;;;;;;;10.31;79.71;100831.72;5033828;28;20207;-73
2023/12/28 05:51:57;;;;;;;3.80;3.60;;;;;;;10.32;79.89;100827.22;5033930;28;20188;-73
2023/12/28 05:54:24;;;;;;;3.60;3.40;;;;;;;10.33;80.01;100847.63;5034389;28;20188;-73
2023/12/28 05:56:50;;;;;;;5.13;3.70;;;;;;;10.30;79.90;100834.56;5034046;28;20609;-73
2023/12/28 05:59:17;;;;;;;3.67;3.47;;;;;;;10.32;80.25;100854.78;5032988;28;20699;-73
2023/12/28 06:01:45;;;;;;;4.07;3.77;;;;;;;10.27;79.72;100843.69;5033830;28;20275;-73
2023/12/28 06:04:11;;;;;;;3.40;3.30;;;;;;;10.29;79.46;100846.22;5034093;28;20562;-74
2023/12/28 06:06:38;;;;;;;3.73;3.43;;;;;;;10.34;79.35;100844.81;5033907;28;20230;-74
2023/12/28 06:09:05;;;;;;;3.77;3.43;;;;;;;10.30;79.39;100842.56;5033507;28;20192;-72
2023/12/28 06:11:31;;;;;;;3.37;3.27;;;;;;;10.24;79.51;100846.66;5034057;28;20202;-73
2023/12/28 06:13:58;;;;;;;3.87;3.50;;;;;;;10.31;79.05;100844.25;5033631;28;20184;-73
2023/12/28 06:16:25;;;;;;;3.73;3.57;;;;;;;10.20;79.47;100839.94;5033319;28;20187;-73
2023/12/28 06:18:52;;;;;;;3.63;3.47;;;;;;;10.24;78.74;100840.47;5033269;28;20204;-72
2023/12/28 06:21:19;;;;;;;7.10;3.57;;;;;;;10.26;78.78;100834.00;5033971;28;20242;-73
2023/12/28 06:23:45;;;;;;;6.10;3.10;;;;;;;10.27;78.71;100838.34;5033264;28;20242;-73
2023/12/28 06:26:11;;;;;;;3.90;3.77;;;;;;;10.21;79.32;100840.78;5033369;28;20188;-73
2023/12/28 06:28:38;;;;;;;3.33;3.03;;;;;;;10.16;79.44;100849.22;5033798;28;20216;-73
2023/12/28 06:31:04;;;;;;;3.03;3.00;;;;;;;10.18;78.80;100847.28;5033165;28;20203;-73
2023/12/28 06:33:31;;;;;;;3.47;3.27;;;;;;;10.28;78.70;100847.22;5033219;28;20196;-73
2023/12/28 06:35:58;;;;;;;3.17;3.07;;;;;;;10.29;78.76;100862.25;5033220;28;20230;-73
2023/12/28 06:38:25;;;;;;;3.30;3.10;;;;;;;10.27;78.22;100869.59;5033273;28;20188;-73
2023/12/28 06:40:51;;;;;;;4.30;4.03;;;;;;;10.27;78.22;100869.59;5033108;28;20203;-73
2023/12/28 06:43:18;;;;;;;3.57;3.37;;;;;;;10.29;78.32;100863.09;5033136;28;20271;-73
2023/12/28 06:45:45;;;;;;;2.97;2.87;;;;;;;10.25;78.24;100856.38;5033081;28;20610;-73
2023/12/28 06:48:12;;;;;;;5.90;4.40;;;;;;;10.27;78.42;100862.41;5033312;28;20196;-73
2023/12/28 06:50:38;;;;;;;3.07;3.00;;;;;;;10.24;78.17;100856.50;5033017;28;20215;-73
2023/12/28 06:53:05;;;;;;;3.20;2.87;;;;;;;10.16;78.47;100859.06;5033044;28;20220;-73
2023/12/28 06:55:31;;;;;;;3.77;3.67;;;;;;;10.22;77.93;100839.78;5033079;28;20183;-71
2023/12/28 06:57:58;;;;;;;4.40;4.20;;;;;;;10.15;78.14;100844.88;5032998;28;20672;-71
2023/12/28 07:00:25;;;;;;;3.67;3.50;;;;;;;10.16;78.09;100835.88;5032945;28;20208;-70
2023/12/28 07:02:51;;;;;;;4.57;3.37;;;;;;;10.11;78.45;100840.78;5032939;28;20192;-70
2023/12/28 07:05:18;;;;;;;3.30;3.07;;;;;;;10.13;78.34;100849.50;5032895;28;20203;-70
2023/12/28 07:07:45;;;;;;;3.47;3.27;;;;;;;10.19;78.16;100862.28;5032976;28;20751;-70
2023/12/28 07:10:12;;;;;;;3.57;3.40;;;;;;;10.15;78.47;100852.00;5033080;28;20211;-70
2023/12/28 07:12:38;;;;;;;3.93;3.10;;;;;;;10.19;78.40;100861.44;5036427;28;20270;-70
2023/12/28 07:15:05;;;;;;;5.13;3.03;;;;;;;10.18;77.89;100857.09;5036822;28;20264;-70
2023/12/28 07:17:31;;;;;;;3.80;2.70;;;;;;;10.19;78.04;100858.75;5036738;28;20258;-70
2023/12/28 07:19:59;;;;;;;4.30;3.00;;;;;;;10.21;77.94;100843.44;5036632;28;20582;-70
2023/12/28 07:22:25;;;;;;;3.53;3.30;;;;;;;10.21;77.75;100840.78;5036979;28;20183;-70
2023/12/28 07:24:52;;;;;;;5.10;3.20;;;;;;;10.17;77.88;100850.91;5036556;28;20702;-70
2023/12/28 07:27:18;;;;;;;2.90;2.80;;;;;;;10.14;78.14;100855.69;5036523;28;20192;-70
2023/12/28 07:29:45;;;;;;;3.77;3.47;;;;;;;10.21;77.72;100851.47;5036695;28;20218;-70
2023/12/28 07:32:11;;;;;;;7.37;3.63;;;;;;;10.19;77.83;100864.13;5036754;28;20647;-70
2023/12/28 07:34:38;;;;;;;3.33;3.17;;;;;;;10.24;77.80;100869.88;5037022;28;20242;-70
2023/12/28 07:37:05;;;;;;;2.77;2.50;;;;;;;10.22;77.63;100872.69;5036621;28;20198;-69
2023/12/28 07:39:31;;;;;;;5.53;4.17;;;;;;;10.19;78.25;100875.63;5036562;28;20556;-70
2023/12/28 07:41:58;;;;;;;4.30;3.67;;;;;;;10.33;77.68;100880.53;5036598;28;20562;-70
2023/12/28 07:44:24;;;;;;;6.00;3.30;;;;;;;10.26;77.67;100890.13;5036156;28;20211;-70
2023/12/28 07:46:51;;;;;;;5.60;4.97;;;;;;;10.32;77.63;100891.34;5036219;28;20202;-70
2023/12/28 07:49:17;;;;;;;8.87;3.60;;;;;;;10.31;77.85;100887.03;5036134;28;20695;-70
2023/12/28 07:51:44;;;;;;;3.17;3.07;;;;;;;10.30;77.84;100898.69;5036046;28;20180;-70
2023/12/28 07:54:10;;;;;;;3.30;3.10;;;;;;;10.33;77.68;100898.38;5036116;28;20191;-70
2023/12/28 07:56:37;;;;;;;4.17;3.67;;;;;;;10.46;76.97;100906.94;5036320;28;20188;-70
2023/12/28 07:59:03;;;;;;;3.60;3.40;;;;;;;10.43;77.10;100916.09;5035963;28;20188;-70
2023/12/28 08:01:32;;;;;;;14.70;4.23;;;;;;;10.46;77.25;100914.94;5035988;28;20562;-70
2023/12/28 08:03:59;;;;;;;8.77;3.07;;;;;;;10.46;77.26;100933.66;5036147;28;20544;-70
2023/12/28 08:06:26;;;;;;;7.20;3.03;;;;;;;10.47;76.97;100924.66;5036133;28;20180;-70
2023/12/28 08:08:53;;;;;;;3.40;3.20;;;;;;;10.46;77.05;100928.31;5035737;28;20195;-70
2023/12/28 08:11:20;;;;;;;4.47;4.17;;;;;;;10.54;76.92;100923.91;5036123;28;20255;-70
2023/12/28 08:13:46;;;;;;;3.73;3.53;;;;;;;10.43;76.58;100925.94;5035745;28;20191;-70
2023/12/28 08:16:13;;;;;;;6.50;4.37;;;;;;;10.46;76.69;100933.66;5035700;28;20195;-70
2023/12/28 08:18:39;;;;;;;13.10;4.67;;;;;;;10.46;76.65;100928.31;5035665;28;20660;-70
2023/12/28 08:21:06;;;;;;;9.13;3.53;;;;;;;10.52;76.92;100938.44;5036099;28;20203;-70
2023/12/28 08:23:34;;;;;;;8.20;3.57;;;;;;;10.55;77.07;100927.44;5034663;28;20202;-70
2023/12/28 08:26:00;;;;;;;9.60;4.40;;;;;;;10.50;76.40;100919.00;5035439;28;20208;-70
2023/12/28 08:28:27;;;;;;;10.43;3.90;;;;;;;10.49;76.67;100925.34;5036019;28;20194;-70
2023/12/28 08:30:53;;;;;;;8.40;3.73;;;;;;;10.55;76.43;100927.44;5035713;28;20571;-69
2023/12/28 08:33:20;;;;;;;4.47;3.40;;;;;;;10.59;76.80;100933.31;5035385;28;20202;-69
2023/12/28 08:35:47;;;;;;;8.53;2.93;;;;;;;10.60;76.40;100927.00;5035329;28;20274;-69
2023/12/28 08:38:14;;;;;;;9.60;2.77;;;;;;;10.62;76.46;100931.19;5035540;28;20188;-70
2023/12/28 08:40:40;;;;;;;3.10;2.87;;;;;;;10.56;76.05;100929.13;5035186;28;20270;-70
2023/12/28 08:43:06;;;;;;;3.17;3.07;;;;;;;10.63;75.83;100932.03;5035164;28;20244;-69
2023/12/28 08:45:35;;;;;;;7.37;3.60;;;;;;;10.59;76.36;100941.34;5035365;28;20192;-69
2023/12/28 08:48:02;;;;;;;6.70;3.43;;;;;;;10.61;76.33;100939.38;5035874;28;20538;-69
2023/12/28 08:50:29;;;;;;;4.87;2.73;;;;;;;10.63;76.09;100940.91;5035057;28;20207;-70
2023/12/28 08:52:56;;;;;;;8.97;2.57;;;;;;;10.68;75.91;100933.28;5035554;28;20613;-70
2023/12/28 08:55:23;;;;;;;3.13;2.83;;;;;;;10.66;75.64;100934.41;5034934;28;20192;-70
2023/12/28 08:57:49;;;;;;;2.80;2.47;;;;;;;10.65;75.38;100941.59;5034892;28;20203;-70
2023/12/28 09:00:16;;;;;;;13.00;3.40;;;;;;;10.71;75.29;100945.50;5034763;28;20239;-70
2023/12/28 09:02:43;;;;;;;13.10;3.87;;;;;;;10.69;75.53;100953.69;5035054;28;20199;-70
2023/12/28 09:05:10;;;;;;;4.17;3.83;;;;;;;10.75;75.64;100957.59;5034732;28;20211;-70
2023/12/28 09:07:42;;;;;;;11.10;3.70;;;;;;;10.70;75.81;100965.22;5034727;28;20688;-70
2023/12/28 09:10:12;;;;;;;4.77;3.30;;;;;;;10.66;76.00;100964.66;5035182;28;20211;-69
2023/12/28 09:12:40;;;;;;;7.63;2.60;;;;;;;10.68;75.81;100967.22;5034893;28;20176;-69
2023/12/28 09:15:07;;;;;;;9.80;3.87;;;;;;;10.76;75.71;100972.66;5034542;28;20321;-69
2023/12/28 09:17:34;;;;;;;12.23;4.07;;;;;;;10.77;75.45;100953.81;5034378;28;20667;-69
2023/12/28 09:20:01;;;;;;;2.70;2.40;;;;;;;10.83;75.32;100969.25;5034283;28;20211;-70
2023/12/28 09:22:27;;;;;;;11.20;3.33;;;;;;;10.71;75.54;100964.22;5034698;28;20537;-70
2023/12/28 09:24:56;;;;;;;5.20;4.17;;;;;;;10.75;75.46;100970.97;5034312;28;20208;-70
2023/12/28 09:27:23;;;;;;;8.13;3.80;;;;;;;10.73;75.20;100956.91;5034889;28;20223;-70
2023/12/28 09:29:49;;;;;;;5.47;3.07;;;;;;;10.70;75.66;100957.19;5034231;28;20215;-70
2023/12/28 09:32:17;;;;;;;3.43;3.03;;;;;;;10.67;75.63;100961.00;5034184;28;20183;-70
2023/12/28 09:34:43;;;;;;;14.70;3.17;;;;;;;10.71;75.33;100972.25;5034465;28;20184;-70
2023/12/28 09:37:09;;;;;;;9.10;3.07;;;;;;;10.70;75.80;100957.19;5034165;28;20195;-70
2023/12/28 09:39:36;;;;;;;8.30;3.40;;;;;;;10.73;75.57;100955.09;5034376;28;20262;-70
2023/12/28 09:42:16;;;;;;;8.23;2.57;;;;;;;10.81;74.96;100959.69;5034337;28;20555;-70
2023/12/28 09:44:43;;;;;;;9.83;3.10;;;;;;;10.86;74.26;100965.47;5034267;28;20251;-69
2023/12/28 09:47:12;;;;;;;5.73;3.20;;;;;;;10.89;74.79;100954.44;5034024;28;20247;-69
2023/12/28 09:49:40;;;;;;;5.87;3.03;;;;;;;10.95;74.43;100968.06;5034060;28;20215;-70
2023/12/28 09:52:07;;;;;;;10.97;3.10;;;;;;;10.90;74.67;100964.16;5033656;28;20198;-70
2023/12/28 09:54:34;;;;;;;10.07;2.73;;;;;;;10.91;74.44;100947.94;5033763;28;20262;-70
2023/12/28 09:57:01;;;;;;;3.40;2.60;;;;;;;10.85;74.57;100969.97;5033526;28;20188;-70
2023/12/28 09:59:28;;;;;;;11.13;3.63;;;;;;;10.91;74.23;100966.69;5033687;28;20226;-70
2023/12/28 10:01:55;;;;;;;9.90;3.30;;;;;;;10.87;73.87;100967.97;5033701;28;20180;-70
2023/12/28 10:04:22;;;;;;;9.80;3.33;;;;;;;10.88;73.91;100964.31;5033664;28;20242;-70
2023/12/28 10:06:50;;;;;;;8.67;3.23;;;;;;;10.87;74.22;100964.44;5033809;28;20742;-70
2023/12/28 10:09:17;;;;;;;6.37;3.30;;;;;;;10.89;74.17;100955.31;5033551;28;20294;-70
2023/12/28 10:11:43;;;;;;;5.10;3.67;;;;;;;10.91;74.44;100969.34;5033564;28;20198;-70
2023/12/28 10:14:10;;;;;;;6.10;3.17;;;;;;;10.92;74.72;100960.34;5033607;28;20238;-70
2023/12/28 10:16:40;;;;;;;5.27;3.83;;;;;;;10.95;74.25;100965.38;5033647;28;20656;-70
2023/12/28 10:19:07;;;;;;;2.93;2.63;;;;;;;10.92;74.14;100968.38;5033391;28;20187;-70
2023/12/28 10:21:34;;;;;;;8.80;3.30;;;;;;;10.89;74.12;100976.69;5033932;28;20191;-70
2023/12/28 10:24:02;;;;;;;8.93;3.17;;;;;;;10.95;73.87;100968.06;5033583;28;20188;-70
2023/12/28 10:26:28;;;;;;;6.30;2.63;;;;;;;10.90;73.69;100962.34;5033262;28;20254;-70
2023/12/28 10:29:03;;;;;;;3.37;2.97;;;;;;;10.90;74.09;100970.38;5033614;28;20188;-70
2023/12/28 10:31:29;;;;;;;10.40;4.20;;;;;;;10.88;74.21;100969.66;5033393;28;20183;-70
2023/12/28 10:34:01;;;;;;;3.97;3.30;;;;;;;10.81;74.45;100965.91;5033199;28;20199;-70
2023/12/28 10:36:29;;;;;;;7.80;3.20;;;;;;;10.80;74.57;100971.38;5033462;28;20247;-70
2023/12/28 10:38:59;;;;;;;11.83;5.93;;;;;;;10.87;74.13;100967.97;5033087;28;20199;-70
2023/12/28 10:41:30;;;;;;;4.97;3.00;;;;;;;10.90;73.29;100958.81;5033240;28;20172;-69
2023/12/28 10:44:02;;;;;;;3.13;2.93;;;;;;;10.86;73.91;100963.59;5033739;28;20184;-69
2023/12/28 10:46:41;;;;;;;4.37;2.60;;;;;;;10.89;74.13;100949.94;5032777;28;20227;-69
2023/12/28 10:49:12;;;;;;;7.97;2.83;;;;;;;10.93;74.19;100953.16;5033273;28;20595;-69
2023/12/28 10:51:43;;;;;;;12.30;3.43;;;;;;;10.92;73.71;100955.00;5033386;28;20258;-69
2023/12/28 10:54:41;;;;;;;4.73;2.70;;;;;;;10.92;74.14;100955.00;5033320;28;20172;-69
2023/12/28 10:57:27;;;;;;;11.67;2.90;;;;;;;10.94;74.39;100954.84;5033319;28;20262;-69
2023/12/28 11:00:10;;;;;;;6.10;2.57;;;;;;;11.07;73.42;100949.16;5033127;28;20215;-69
2023/12/28 11:02:45;;;;;;;14.07;3.37;;;;;;;11.10;73.95;100946.16;5033205;28;20180;-69
2023/12/28 11:05:12;;;;;;;6.83;2.40;;;;;;;11.17;73.06;100936.53;5033439;28;20282;-69
2023/12/28 11:07:41;;;;;;;12.60;3.23;;;;;;;11.17;73.09;100941.91;5032914;28;20270;-70
2023/12/28 11:10:10;;;;;;;7.60;2.40;;;;;;;11.18;73.52;100941.75;5033298;28;20212;-70
2023/12/28 11:12:37;;;;;;;7.07;2.47;;;;;;;11.24;73.18;100946.53;5033584;28;20192;-70
2023/12/28 11:15:09;;;;;;;9.47;2.93;;;;;;;11.30;73.32;100955.75;5032873;28;20191;-70
2023/12/28 11:17:37;;;;;;;4.10;2.53;;;;;;;11.26;73.25;100947.19;5032934;28;20574;-70
2023/12/28 11:20:06;;;;;;;7.53;3.27;;;;;;;11.28;72.97;100944.38;5032701;28;20208;-70
2023/12/28 11:22:33;;;;;;;21.67;3.57;;;;;;;11.29;72.58;100944.22;5032855;28;20184;-69
2023/12/28 11:25:00;;;;;;;4.33;2.97;;;;;;;11.28;72.61;100950.56;5032788;28;20188;-69
2023/12/28 11:27:34;;;;;;;11.80;3.23;;;;;;;11.26;73.07;100938.31;5033053;28;20214;-69
2023/12/28 11:30:03;;;;;;;9.80;3.00;;;;;;;11.25;72.56;100939.31;5032579;28;20279;-69
2023/12/28 11:32:43;;;;;;;15.20;2.60;;;;;;;11.26;72.44;100938.31;5032934;28;20609;-70